Hadley, Michigan
Current Conditions -  °F | °C
As of 5:13 AM on Thursday 29 Jan 2015 (Local Time) from KD95 Reporting Station
Light Snow Light Snow  
Wind Chill: 17°   Ceiling: 4600
Heat Index: 27°   Visibility: 10mi
Dew Point: 16°   Wind: 9mph
Humidity: 65%   Direction: 160°SSE
Pressure: 29.9"   Gusts: NA
Location:  42.95°N, 83.4°W
Report Text: KD95 291013Z AUTO 16008KT 10SM -SN SCT032 SCT039 OVC046 M03/M09 A2990 RMK AO2 T10301087
Loading
Personal Weather Stations






























Interactive Weather Map New forecast layout! Learn more

10-Day Weather Forecast

Advertisements
Track Severe Weather on mobile